Time;durP1;ratioP1;P1;durP2;ratioP2;P2;SDS_P1;SDS_P2;PMS_P1;PMS_P2;Temp;Humidity;BMP_temperature;BMP_pressure;BME280_temperature;BME280_humidity;BME280_pressure;Samples;Min_cycle;Max_cycle;Signal;HPM_P1;HPM_P2
2022/06/19 00:00:19;;;;;;;10.20;3.00;;;;;;;25.90;43.31;100970.59;4953002;29;20054;-70
2022/06/19 00:03:11;;;;;;;6.20;2.20;;;;;;;26.05;42.85;100963.66;4955310;29;20415;-72
2022/06/19 00:05:57;;;;;;;4.63;1.98;;;;;;;25.80;43.37;100961.13;4943439;29;20038;-71
2022/06/19 00:08:42;;;;;;;4.47;2.40;;;;;;;25.66;44.28;100964.03;4935978;29;20542;-70
2022/06/19 00:11:27;;;;;;;5.75;2.60;;;;;;;25.61;44.70;100960.91;4944931;29;20054;-71
2022/06/19 00:14:13;;;;;;;109.72;7.30;;;;;;;25.46;44.18;100955.44;4952417;29;20050;-69
2022/06/19 00:16:58;;;;;;;21.38;2.90;;;;;;;25.31;44.63;100944.81;4952497;29;20047;-70
2022/06/19 00:19:43;;;;;;;7.15;2.35;;;;;;;25.07;45.29;100946.59;4951788;29;20050;-69
2022/06/19 00:22:28;;;;;;;9.25;2.22;;;;;;;25.16;45.45;100944.16;4947908;29;20054;-69
2022/06/19 00:25:14;;;;;;;5.22;2.00;;;;;;;25.20;46.23;100946.88;4949693;29;20050;-69
2022/06/19 00:27:58;;;;;;;10.45;2.72;;;;;;;25.29;44.64;100939.69;4943163;29;20050;-70
2022/06/19 00:30:43;;;;;;;8.20;3.33;;;;;;;25.13;45.32;100936.63;4950980;29;20058;-70
2022/06/19 00:33:28;;;;;;;14.75;2.50;;;;;;;25.02;45.70;100939.47;4953138;29;20050;-69
2022/06/19 00:36:14;;;;;;;5.30;2.75;;;;;;;24.50;47.03;100943.31;4952760;29;20050;-69
2022/06/19 00:38:58;;;;;;;6.75;2.85;;;;;;;24.77;46.89;100927.69;4951917;29;20062;-70
2022/06/19 00:41:44;;;;;;;8.57;2.50;;;;;;;24.68;46.93;100922.59;4952116;29;20094;-69
2022/06/19 00:44:29;;;;;;;4.47;2.58;;;;;;;24.73;46.73;100923.34;4952613;29;20686;-69
2022/06/19 00:47:19;;;;;;;5.78;2.30;;;;;;;24.81;46.61;100924.88;4952434;28;20058;-69
2022/06/19 00:50:25;;;;;;;5.75;3.35;;;;;;;24.77;46.67;100929.69;4948177;29;20050;-70
2022/06/19 00:53:18;;;;;;;8.40;3.13;;;;;;;24.41;47.62;100913.19;4951840;29;20518;-70
2022/06/19 00:56:04;;;;;;;15.50;3.65;;;;;;;24.18;48.03;100910.88;4947720;29;20050;-68
2022/06/19 00:58:52;;;;;;;13.07;3.80;;;;;;;24.23;48.47;100913.25;4955261;28;20070;-68
2022/06/19 01:01:38;;;;;;;8.98;2.97;;;;;;;24.18;48.98;100910.09;4955680;29;20047;-69
2022/06/19 01:04:41;;;;;;;8.20;3.38;;;;;;;24.08;49.10;100906.13;4955688;29;20119;-70
2022/06/19 01:07:26;;;;;;;7.03;3.00;;;;;;;24.15;49.18;100906.13;4953020;28;20399;-68
2022/06/19 01:10:12;;;;;;;9.15;3.92;;;;;;;24.38;48.47;100913.97;4954770;29;20521;-68
2022/06/19 01:12:58;;;;;;;9.95;3.70;;;;;;;23.82;49.98;100904.63;4955584;28;20050;-69
2022/06/19 01:15:44;;;;;;;7.72;3.80;;;;;;;23.55;50.40;100909.06;4954285;28;20054;-70
2022/06/19 01:18:32;;;;;;;9.77;3.78;;;;;;;23.90;49.83;100913.75;4954775;29;20065;-70
2022/06/19 01:21:26;;;;;;;8.63;3.45;;;;;;;24.07;49.76;100899.00;4955465;29;20051;-69
2022/06/19 01:24:30;;;;;;;10.38;3.60;;;;;;;24.20;48.90;100905.72;4959573;28;20120;-68
2022/06/19 01:28:45;;;;;;;8.15;3.50;;;;;;;24.00;49.60;100898.22;4954910;29;20058;-69
2022/06/19 01:30:20;;;;;;;;;;;;;;;23.95;49.68;100901.41;4953020;29;20050;-68
2022/06/19 01:33:09;;;;;;;12.05;4.10;;;;;;;23.80;50.04;100900.66;4960285;28;19914;-71
2022/06/19 01:35:55;;;;;;;7.38;3.42;;;;;;;23.65;50.53;100894.34;4954738;29;20062;-70
2022/06/19 01:38:43;;;;;;;9.80;2.90;;;;;;;23.69;50.55;100895.13;4954514;29;20058;-71
2022/06/19 01:41:32;;;;;;;9.88;3.20;;;;;;;23.81;50.21;100885.59;4955372;29;20518;-69
2022/06/19 01:44:17;;;;;;;8.85;2.78;;;;;;;23.78;50.26;100880.81;4954791;28;20054;-69
2022/06/19 01:47:03;;;;;;;7.25;3.13;;;;;;;23.95;50.10;100884.75;4954582;29;20042;-70
2022/06/19 01:49:52;;;;;;;9.02;3.10;;;;;;;23.94;49.70;100872.06;4952645;29;20055;-69
2022/06/19 01:52:37;;;;;;;7.45;2.72;;;;;;;23.84;49.76;100868.13;4955100;29;20054;-70
2022/06/19 01:55:28;;;;;;;7.85;3.33;;;;;;;23.53;50.62;100867.00;4948911;29;20407;-70
2022/06/19 01:58:13;;;;;;;7.60;3.15;;;;;;;23.44;51.36;100863.81;4946931;28;20054;-69
2022/06/19 02:00:59;;;;;;;4.53;3.40;;;;;;;23.63;51.15;100868.97;4955011;28;20054;-70
2022/06/19 02:03:48;;;;;;;3.83;2.83;;;;;;;23.90;50.83;100854.59;4958566;28;20054;-69
2022/06/19 02:06:43;;;;;;;11.52;4.22;;;;;;;23.75;50.61;100851.09;4958063;29;20046;-70
2022/06/19 02:09:29;;;;;;;7.43;3.00;;;;;;;23.50;51.40;100853.94;4956995;29;20050;-68
2022/06/19 02:12:14;;;;;;;5.10;3.65;;;;;;;23.38;51.24;100846.78;4954375;29;20053;-69
2022/06/19 02:15:02;;;;;;;10.23;3.20;;;;;;;23.56;51.19;100846.78;4943659;29;21586;-70
2022/06/19 02:17:50;;;;;;;6.15;3.33;;;;;;;23.85;51.18;100853.03;4951255;28;20450;-70
2022/06/19 02:20:35;;;;;;;8.63;3.47;;;;;;;23.94;50.45;100850.63;4954348;29;20706;-69
2022/06/19 02:23:32;;;;;;;4.88;3.30;;;;;;;23.80;50.74;100851.47;4956172;28;20058;-69
2022/06/19 02:26:17;;;;;;;6.95;3.22;;;;;;;23.85;50.91;100850.25;4951977;28;20034;-70
2022/06/19 02:29:06;;;;;;;6.18;3.65;;;;;;;23.62;51.08;100847.94;4947545;29;20054;-72
2022/06/19 02:31:53;;;;;;;6.75;3.47;;;;;;;23.62;50.96;100845.16;4954404;29;20061;-68
2022/06/19 02:34:42;;;;;;;11.18;3.70;;;;;;;23.39;51.68;100848.38;4950131;28;20521;-70
2022/06/19 02:37:31;;;;;;;13.05;3.53;;;;;;;23.11;52.25;100847.59;4948687;29;20094;-68
2022/06/19 02:40:33;;;;;;;12.23;3.30;;;;;;;23.17;52.13;100851.53;4962388;23;20535;-80
2022/06/19 02:43:24;;;;;;;4.93;3.38;;;;;;;23.24;52.18;100857.09;4949363;29;20692;-81
2022/06/19 02:46:09;;;;;;;8.35;3.17;;;;;;;23.19;52.18;100852.75;4963730;28;20116;-80
2022/06/19 02:48:54;;;;;;;7.97;3.30;;;;;;;23.50;51.15;100848.38;4953411;28;20046;-80
2022/06/19 02:51:38;;;;;;;4.82;3.08;;;;;;;23.69;50.97;100849.91;4941203;29;20055;-80
2022/06/19 02:54:24;;;;;;;9.93;3.22;;;;;;;23.63;50.49;100845.94;4947926;28;20160;-80
2022/06/19 02:57:12;;;;;;;4.65;2.90;;;;;;;23.75;50.70;100851.09;4947027;28;20063;-80
2022/06/19 02:59:57;;;;;;;11.30;3.15;;;;;;;23.76;49.82;100856.25;4937749;29;20539;-80
2022/06/19 03:02:42;;;;;;;8.02;3.00;;;;;;;23.68;50.68;100849.13;4946457;28;20058;-80
2022/06/19 03:05:29;;;;;;;11.15;3.42;;;;;;;23.87;49.93;100848.66;4937529;29;20051;-80
2022/06/19 03:08:13;;;;;;;4.85;3.28;;;;;;;24.02;49.97;100851.41;4935623;29;20047;-80
2022/06/19 03:10:58;;;;;;;8.50;2.95;;;;;;;24.04;49.69;100851.78;4935095;29;20527;-79
2022/06/19 03:13:43;;;;;;;16.30;2.95;;;;;;;24.02;49.73;100854.19;4935904;29;20074;-80
2022/06/19 03:16:27;;;;;;;;;;;;;;;23.98;49.74;100847.81;4949638;29;20054;-79
2022/06/19 03:19:13;;;;;;;7.68;3.50;;;;;;;23.99;49.87;100852.19;4950694;29;19914;-80
2022/06/19 03:21:58;;;;;;;6.65;3.13;;;;;;;23.80;49.63;100847.91;4941890;29;20523;-79
2022/06/19 03:24:42;;;;;;;8.23;3.00;;;;;;;23.76;49.58;100850.69;4951500;28;20440;-79
2022/06/19 03:27:26;;;;;;;6.03;2.85;;;;;;;23.68;49.92;100851.09;4939382;29;20061;-79
2022/06/19 03:30:15;;;;;;;10.50;2.72;;;;;;;23.86;49.71;100854.63;4928350;29;20052;-79
2022/06/19 03:33:00;;;;;;;11.85;3.40;;;;;;;23.85;50.02;100856.63;4918428;29;20409;-79
2022/06/19 03:35:44;;;;;;;;;;;;;;;23.63;50.04;100859.84;4946041;29;20046;-79
2022/06/19 03:38:29;;;;;;;4.47;2.90;;;;;;;23.45;50.51;100862.66;4939970;29;19940;-80
2022/06/19 03:41:14;;;;;;;9.13;2.63;;;;;;;23.42;50.72;100866.19;4936210;28;20791;-79
2022/06/19 03:43:59;;;;;;;4.38;2.72;;;;;;;23.44;50.27;100863.81;4934767;29;20059;-79
2022/06/19 03:46:43;;;;;;;12.55;3.53;;;;;;;23.21;50.43;100869.78;4935748;29;20047;-79
2022/06/19 03:49:28;;;;;;;6.15;3.50;;;;;;;23.21;51.18;100874.56;4929749;29;20059;-79
2022/06/19 03:52:13;;;;;;;;;;;;;;;23.49;50.68;100870.97;4939391;29;20051;-78
2022/06/19 03:54:58;;;;;;;7.30;2.80;;;;;;;23.67;50.10;100878.06;4949414;29;19914;-79
2022/06/19 03:57:43;;;;;;;6.22;3.78;;;;;;;24.01;49.43;100869.25;4937282;29;20051;-79
2022/06/19 04:00:27;;;;;;;8.07;3.28;;;;;;;24.19;49.12;100864.44;4946495;29;20059;-79
2022/06/19 04:03:12;;;;;;;8.55;2.92;;;;;;;24.04;48.92;100874.78;4927688;29;20089;-79
2022/06/19 04:05:56;;;;;;;13.35;2.88;;;;;;;24.30;48.58;100879.09;4934634;29;20512;-80
2022/06/19 04:08:44;;;;;;;6.38;3.42;;;;;;;24.22;48.22;100869.19;4937189;29;20051;-80
2022/06/19 04:11:30;;;;;;;7.68;3.45;;;;;;;23.88;48.96;100863.34;4942913;29;20528;-82
2022/06/19 04:14:17;;;;;;;6.55;3.35;;;;;;;23.82;49.48;100871.28;4938078;29;20084;-81
2022/06/19 04:17:05;;;;;;;8.23;3.33;;;;;;;24.00;49.59;100870.44;4935988;29;20055;-80
2022/06/19 04:19:49;;;;;;;6.65;3.00;;;;;;;23.95;49.69;100870.84;4965912;28;20055;-81
2022/06/19 04:22:35;;;;;;;6.88;2.80;;;;;;;23.92;49.67;100872.47;4953567;28;20519;-81
2022/06/19 04:25:20;;;;;;;7.53;2.92;;;;;;;24.12;49.07;100884.69;4937035;29;20062;-81
2022/06/19 04:28:06;;;;;;;6.10;3.17;;;;;;;24.16;49.02;100879.91;4948379;29;20047;-80
2022/06/19 04:30:52;;;;;;;4.95;2.60;;;;;;;24.27;48.92;100875.13;4940628;29;20051;-81
2022/06/19 04:33:40;;;;;;;6.00;2.60;;;;;;;24.47;48.72;100881.00;4940248;29;20047;-79
2022/06/19 04:36:28;;;;;;;9.88;2.72;;;;;;;24.61;48.20;100880.91;4946239;28;20503;-79
2022/06/19 04:39:13;;;;;;;14.45;3.60;;;;;;;24.46;48.92;100881.38;4933295;29;20564;-80
2022/06/19 04:41:58;;;;;;;9.40;3.53;;;;;;;24.44;48.88;100873.44;4947114;29;20066;-80
2022/06/19 04:44:42;;;;;;;8.45;2.80;;;;;;;24.43;49.25;100868.31;4951325;28;20050;-81
2022/06/19 04:47:27;;;;;;;8.40;3.30;;;;;;;24.36;49.86;100862.78;4939347;29;20055;-80
2022/06/19 04:50:12;;;;;;;6.60;2.90;;;;;;;24.60;49.22;100870.16;4939367;29;20046;-80
2022/06/19 04:52:58;;;;;;;6.22;2.97;;;;;;;24.64;49.34;100859.81;4940015;29;20054;-80
2022/06/19 04:55:42;;;;;;;6.63;3.40;;;;;;;24.76;49.33;100867.69;4939914;29;20054;-80
2022/06/19 04:58:27;;;;;;;14.98;3.90;;;;;;;24.94;48.97;100862.03;4943857;29;20055;-80
2022/06/19 05:01:25;;;;;;;10.45;4.22;;;;;;;24.94;49.14;100862.78;4938912;29;20050;-80
2022/06/19 05:04:11;;;;;;;6.07;3.00;;;;;;;24.93;48.64;100860.44;4940450;29;20449;-80
2022/06/19 05:06:56;;;;;;;7.88;3.22;;;;;;;25.07;48.31;100865.91;4937870;29;20046;-81
2022/06/19 05:09:41;;;;;;;;;;;;;;;25.22;48.04;100872.13;4929177;29;20047;-80
2022/06/19 05:12:26;;;;;;;10.38;2.65;;;;;;;25.41;47.30;100874.31;4934225;29;19914;-80
2022/06/19 05:15:12;;;;;;;5.10;2.53;;;;;;;25.50;47.26;100871.84;4929763;29;20416;-79
2022/06/19 05:17:56;;;;;;;9.07;2.88;;;;;;;25.60;46.90;100870.22;4935021;29;20396;-79
2022/06/19 05:20:41;;;;;;;20.90;2.90;;;;;;;25.60;46.35;100876.53;4934966;29;20540;-78
2022/06/19 05:23:31;;;;;;;10.80;3.17;;;;;;;25.72;46.40;100878.03;4926889;29;20134;-79
2022/06/19 05:26:20;;;;;;;6.35;2.58;;;;;;;25.84;45.59;100863.56;4926617;29;20701;-79
2022/06/19 05:29:05;;;;;;;8.88;2.47;;;;;;;25.92;45.41;100859.47;4933115;29;20051;-78
2022/06/19 05:31:50;;;;;;;3.35;2.38;;;;;;;25.98;45.61;100863.41;4929613;29;20047;-78
2022/06/19 05:34:37;;;;;;;8.43;2.40;;;;;;;26.11;45.36;100858.84;4931074;29;20552;-79
2022/06/19 05:37:21;;;;;;;7.85;2.75;;;;;;;26.13;45.01;100870.38;4927703;29;20133;-78
2022/06/19 05:40:07;;;;;;;9.57;3.53;;;;;;;26.17;44.76;100868.31;4941748;28;20050;-78
2022/06/19 05:42:51;;;;;;;8.75;2.58;;;;;;;26.26;44.13;100865.84;4944384;28;20070;-78
2022/06/19 05:45:36;;;;;;;;;;;;;;;26.31;44.31;100865.38;4938584;29;20050;-78
2022/06/19 05:48:21;;;;;;;10.80;2.67;;;;;;;26.38;44.12;100868.06;4938196;29;19915;-78
2022/06/19 05:51:10;;;;;;;6.82;2.35;;;;;;;26.51;43.54;100875.88;4940559;29;20290;-78
2022/06/19 05:53:57;;;;;;;5.00;2.00;;;;;;;26.49;43.13;100869.94;4936874;29;20055;-78
2022/06/19 05:56:42;;;;;;;9.00;2.50;;;;;;;26.56;42.59;100872.63;4936532;29;20046;-78
2022/06/19 05:59:26;;;;;;;11.77;3.00;;;;;;;26.69;42.44;100870.81;4935492;29;20074;-78
2022/06/19 06:02:18;;;;;;;5.80;2.03;;;;;;;26.77;42.02;100870.28;4929628;29;20058;-78
2022/06/19 06:05:04;;;;;;;5.40;2.40;;;;;;;26.89;41.54;100877.31;4936009;29;20055;-78
2022/06/19 06:07:49;;;;;;;9.35;2.53;;;;;;;26.92;42.02;100882.06;4939563;29;20042;-78
2022/06/19 06:10:33;;;;;;;7.78;2.40;;;;;;;27.05;41.57;100879.47;4936179;29;20421;-78
2022/06/19 06:13:18;;;;;;;7.88;2.75;;;;;;;27.05;40.81;100874.69;4942016;28;20047;-78
2022/06/19 06:16:04;;;;;;;3.03;1.83;;;;;;;27.27;39.71;100874.31;4953264;28;20050;-78
2022/06/19 06:18:50;;;;;;;7.93;2.75;;;;;;;27.24;39.59;100867.56;4951287;28;20055;-78
2022/06/19 06:21:34;;;;;;;10.30;3.08;;;;;;;27.36;39.28;100868.97;4935577;29;20058;-78
2022/06/19 06:24:19;;;;;;;15.98;2.85;;;;;;;27.47;39.30;100866.78;4936010;29;20063;-79
2022/06/19 06:27:05;;;;;;;8.15;1.75;;;;;;;27.74;36.18;100872.25;4935792;29;20050;-78
2022/06/19 06:29:50;;;;;;;7.95;2.10;;;;;;;27.96;36.54;100879.81;4936485;29;20050;-78
2022/06/19 06:32:34;;;;;;;7.13;2.30;;;;;;;28.09;34.75;100874.34;4935669;29;20058;-79
2022/06/19 06:35:19;;;;;;;3.90;1.65;;;;;;;28.24;34.97;100870.06;4938469;29;20437;-78
2022/06/19 06:38:04;;;;;;;23.60;2.40;;;;;;;28.45;34.96;100886.38;4936606;29;20059;-79
2022/06/19 06:40:48;;;;;;;390.48;79.25;;;;;;;28.74;35.85;100880.97;4935034;29;20055;-78
2022/06/19 06:43:36;;;;;;;78.07;14.55;;;;;;;28.88;35.36;100877.84;4940307;29;20036;-79
2022/06/19 06:46:24;;;;;;;16.77;4.00;;;;;;;28.75;35.97;100871.34;4939285;29;20051;-78
2022/06/19 06:49:10;;;;;;;14.95;3.28;;;;;;;28.95;33.47;100874.09;4930859;29;20058;-78
2022/06/19 06:51:55;;;;;;;7.28;2.65;;;;;;;28.89;32.80;100871.03;4935352;29;20453;-80
2022/06/19 06:54:39;;;;;;;11.15;2.67;;;;;;;29.18;31.92;100881.50;4926300;29;20047;-80
2022/06/19 06:57:24;;;;;;;2.95;1.40;;;;;;;29.32;26.71;100879.16;4945977;29;20062;-80
2022/06/19 07:00:15;;;;;;;21.40;2.38;;;;;;;29.39;28.50;100869.78;4946039;29;20051;-80
2022/06/19 07:02:59;;;;;;;6.20;1.27;;;;;;;29.97;27.33;100870.59;4941823;29;20051;-79
2022/06/19 07:05:45;;;;;;;13.80;1.65;;;;;;;29.80;26.29;100869.06;4937841;29;20718;-79
2022/06/19 07:08:29;;;;;;;1.60;0.80;;;;;;;29.68;26.64;100870.59;4931976;29;20067;-80
2022/06/19 07:11:17;;;;;;;2.08;1.10;;;;;;;30.03;26.75;100870.84;4935419;29;20531;-80
2022/06/19 07:14:03;;;;;;;4.65;1.20;;;;;;;30.06;27.31;100870.75;4934741;29;20043;-78
2022/06/19 07:16:48;;;;;;;4.57;0.90;;;;;;;29.70;27.00;100868.13;4931228;29;20078;-80
2022/06/19 07:19:33;;;;;;;3.65;1.02;;;;;;;30.38;25.37;100872.56;4935810;29;20042;-79
2022/06/19 07:22:18;;;;;;;1.45;1.00;;;;;;;31.91;24.59;100867.50;4932645;29;20523;-78
2022/06/19 07:25:04;;;;;;;1.25;0.88;;;;;;;31.93;24.40;100868.63;4924053;29;20054;-77
2022/06/19 07:27:49;;;;;;;1.45;1.13;;;;;;;32.88;23.81;100871.81;4944578;28;20050;-78
2022/06/19 07:30:34;;;;;;;2.95;1.60;;;;;;;33.89;22.54;100876.34;4923234;29;20524;-78
2022/06/19 07:33:20;;;;;;;9.13;1.42;;;;;;;32.96;24.10;100868.25;4927063;29;20070;-85
2022/06/19 07:36:07;;;;;;;2.05;1.25;;;;;;;32.14;25.48;100876.31;4932269;29;20050;-85
2022/06/19 07:38:52;;;;;;;3.17;0.85;;;;;;;31.65;26.38;100872.47;4934375;29;20062;-84
2022/06/19 07:41:37;;;;;;;1.90;1.00;;;;;;;31.33;26.09;100863.13;4937786;29;20527;-85
2022/06/19 07:44:21;;;;;;;6.88;1.17;;;;;;;31.12;26.23;100868.69;4937628;28;20515;-84
2022/06/19 07:50:17;;;;;;;11.00;0.90;;;;;;;30.78;26.26;100856.09;4936875;29;20066;-84
2022/06/19 07:53:02;;;;;;;2.28;0.75;;;;;;;30.71;25.67;100859.16;4958134;28;20055;-84
2022/06/19 07:55:47;;;;;;;2.80;1.20;;;;;;;30.64;26.64;100875.44;4942215;28;20062;-84
2022/06/19 07:58:35;;;;;;;1.17;0.90;;;;;;;30.62;26.85;100875.09;4949225;28;20051;-83
2022/06/19 08:01:20;;;;;;;1.80;1.00;;;;;;;30.56;27.43;100866.47;4940992;29;20055;-84
2022/06/19 08:04:04;;;;;;;3.20;1.00;;;;;;;30.46;27.42;100868.38;4944600;29;20117;-85
2022/06/19 08:06:50;;;;;;;2.40;0.93;;;;;;;30.42;27.18;100873.28;4946395;28;20050;-84
2022/06/19 08:09:35;;;;;;;3.03;0.80;;;;;;;30.48;26.75;100876.31;4946475;29;20042;-85
2022/06/19 08:12:20;;;;;;;2.65;0.70;;;;;;;30.45;26.65;100872.38;4940761;29;20124;-85
2022/06/19 08:15:07;;;;;;;8.82;0.90;;;;;;;30.43;26.90;100866.41;4943327;29;20063;-85
2022/06/19 08:17:53;;;;;;;3.53;1.10;;;;;;;30.46;27.33;100873.16;4939050;29;20071;-84
2022/06/19 08:20:37;;;;;;;8.77;0.90;;;;;;;30.50;27.00;100868.25;4934543;29;20059;-84
2022/06/19 08:23:22;;;;;;;12.02;1.52;;;;;;;30.52;26.45;100866.56;4942653;29;20054;-84
2022/06/19 08:26:06;;;;;;;1.58;0.95;;;;;;;30.56;26.69;100867.25;4934993;29;20066;-84
2022/06/19 08:31:43;;;;;;;2.38;1.10;;;;;;;30.59;26.70;100863.53;4946039;29;20076;-83
2022/06/19 08:34:28;;;;;;;1.90;0.80;;;;;;;30.57;26.35;100866.03;4938708;29;20055;-83
2022/06/19 08:37:13;;;;;;;3.80;0.90;;;;;;;30.63;26.95;100863.41;4938619;29;20047;-83
2022/06/19 08:39:57;;;;;;;12.25;1.60;;;;;;;30.67;27.05;100854.91;5001957;23;20467;-66
2022/06/19 08:42:59;;;;;;;6.13;1.35;;;;;;;30.75;27.65;100851.41;4929802;29;20407;-64
2022/06/19 08:46:05;;;;;;;3.13;1.35;;;;;;;30.70;27.74;100849.16;4917529;29;20047;-64
2022/06/19 08:48:53;;;;;;;6.13;1.00;;;;;;;30.69;27.85;100843.97;4931522;29;20051;-64
2022/06/19 08:52:15;;;;;;;1.05;0.90;;;;;;;30.81;28.39;100848.81;4937350;29;20055;-65
2022/06/19 08:55:14;;;;;;;4.10;0.88;;;;;;;30.87;27.79;100847.00;4937556;29;20051;-65
2022/06/19 08:57:58;;;;;;;1.35;0.60;;;;;;;30.81;27.45;100838.38;4936827;29;20051;-64
2022/06/19 09:01:03;;;;;;;1.63;0.80;;;;;;;31.05;26.58;100844.41;4937539;29;20046;-66
2022/06/19 09:07:02;;;;;;;1.70;0.88;;;;;;;31.12;26.15;100849.81;4931212;29;20043;-64
2022/06/19 09:09:53;;;;;;;2.83;0.60;;;;;;;31.19;25.26;100851.59;4934193;29;20046;-66
2022/06/19 09:12:52;;;;;;;5.95;0.73;;;;;;;31.26;25.03;100852.13;4936959;29;20051;-65
2022/06/19 09:15:50;;;;;;;2.58;0.60;;;;;;;31.21;24.93;100852.69;4937096;29;20046;-66
2022/06/19 09:19:02;;;;;;;0.93;0.60;;;;;;;31.19;25.84;100852.34;4936590;29;20133;-66
2022/06/19 09:22:15;;;;;;;2.97;0.70;;;;;;;31.23;25.65;100850.22;4951044;29;20058;-65
2022/06/19 09:25:18;;;;;;;3.03;0.80;;;;;;;31.38;25.70;100856.94;4923980;29;20051;-66
2022/06/19 09:28:07;;;;;;;0.80;0.60;;;;;;;31.42;25.77;100853.97;4922728;29;20066;-66
2022/06/19 09:31:11;;;;;;;1.42;0.77;;;;;;;31.65;25.19;100855.59;4936270;29;20050;-66
2022/06/19 09:34:10;;;;;;;3.30;0.70;;;;;;;31.63;24.29;100855.28;4928941;29;20047;-65
2022/06/19 09:37:16;;;;;;;5.95;1.05;;;;;;;31.60;25.32;100844.94;4921586;29;20298;-67
2022/06/19 09:40:19;;;;;;;2.80;0.80;;;;;;;31.58;25.09;100847.44;4926010;29;20518;-65
2022/06/19 09:43:24;;;;;;;6.72;1.38;;;;;;;31.80;25.12;100851.03;4925873;29;20046;-67
2022/06/19 09:46:22;;;;;;;1.90;0.70;;;;;;;31.94;25.18;100844.88;4918282;29;20476;-66
2022/06/19 09:49:28;;;;;;;1.92;0.80;;;;;;;32.00;25.03;100848.66;4926645;29;20408;-67
2022/06/19 09:52:23;;;;;;;7.38;0.82;;;;;;;32.06;25.01;100851.66;4920820;29;20051;-66
2022/06/19 09:55:16;;;;;;;5.05;0.90;;;;;;;32.00;24.61;100842.28;4930362;29;20549;-67
2022/06/19 09:58:10;;;;;;;4.30;0.70;;;;;;;32.05;25.08;100839.63;4934342;29;20066;-66
2022/06/19 10:00:58;;;;;;;2.92;1.10;;;;;;;32.14;24.90;100831.28;4932741;29;20039;-68
2022/06/19 10:03:53;;;;;;;1.23;0.98;;;;;;;32.20;24.67;100828.66;4929783;29;20098;-66
2022/06/19 10:06:43;;;;;;;1.75;0.80;;;;;;;32.23;24.81;100822.88;4919811;29;20067;-66
2022/06/19 10:09:37;;;;;;;4.35;1.13;;;;;;;32.26;24.94;100819.13;4913769;29;20059;-67
2022/06/19 10:12:32;;;;;;;4.03;0.93;;;;;;;32.42;24.84;100817.31;4923302;29;20042;-66
2022/06/19 10:15:31;;;;;;;2.95;1.30;;;;;;;32.46;24.44;100810.28;4910374;29;20054;-66
2022/06/19 10:18:19;;;;;;;1.85;0.93;;;;;;;32.51;24.96;100806.09;4910960;29;20047;-67
2022/06/19 10:24:56;;;;;;;3.42;0.82;;;;;;;32.62;24.76;100797.97;4922915;29;20062;-67
2022/06/19 10:27:52;;;;;;;0.95;0.70;;;;;;;32.76;24.42;100797.44;4917354;29;20533;-66
2022/06/19 10:30:40;;;;;;;3.58;0.65;;;;;;;32.74;24.22;100788.66;4923006;29;20043;-67
2022/06/19 10:33:40;;;;;;;3.58;1.30;;;;;;;32.72;24.54;100791.16;4922056;29;20051;-66
2022/06/19 10:36:36;;;;;;;2.85;0.90;;;;;;;32.88;24.36;100792.91;4943294;29;20062;-67
2022/06/19 10:39:21;;;;;;;2.00;0.95;;;;;;;32.84;24.74;100793.06;4953297;29;20054;-66
2022/06/19 10:42:13;;;;;;;5.60;0.68;;;;;;;32.92;24.66;100787.91;4953396;28;20506;-66
2022/06/19 10:45:37;;;;;;;13.77;1.73;;;;;;;32.96;24.77;100785.75;4953694;29;20070;-66
2022/06/19 10:48:31;;;;;;;21.27;1.40;;;;;;;33.03;23.92;100783.38;4953530;29;20062;-66
2022/06/19 10:51:34;;;;;;;1.87;1.23;;;;;;;33.08;25.00;100779.16;4949317;29;20051;-67
2022/06/19 10:55:02;;;;;;;2.17;1.00;;;;;;;33.00;25.02;100766.63;4933091;29;20899;-67
2022/06/19 10:58:18;;;;;;;3.10;1.10;;;;;;;33.17;23.85;100778.44;4928357;29;20058;-67
2022/06/19 11:01:09;;;;;;;4.55;1.00;;;;;;;33.30;23.89;100765.72;4928305;29;20051;-67
2022/06/19 11:04:10;;;;;;;1.95;0.85;;;;;;;33.27;24.02;100760.25;4915434;29;20055;-67
2022/06/19 11:06:58;;;;;;;1.70;1.48;;;;;;;33.46;23.80;100761.81;4927604;29;20047;-66
2022/06/19 11:09:47;;;;;;;5.90;1.30;;;;;;;33.45;23.51;100754.59;4932134;29;20051;-67
2022/06/19 11:12:42;;;;;;;1.02;0.60;;;;;;;33.47;23.34;100755.66;4925747;29;20046;-66
2022/06/19 11:15:32;;;;;;;3.30;0.98;;;;;;;33.45;23.64;100751.78;4928835;29;20055;-67
2022/06/19 11:18:21;;;;;;;4.22;1.10;;;;;;;33.25;25.01;100749.44;4915680;29;20523;-67
2022/06/19 11:21:15;;;;;;;2.72;0.70;;;;;;;33.40;24.52;100747.53;4924386;29;20070;-66
2022/06/19 11:24:05;;;;;;;5.93;0.73;;;;;;;33.53;24.48;100748.16;4920284;29;20416;-66
2022/06/19 11:26:50;;;;;;;1.88;0.80;;;;;;;33.53;23.89;100741.72;4919531;29;20542;-65
2022/06/19 11:29:35;;;;;;;5.20;0.98;;;;;;;33.71;22.95;100744.53;4925132;29;20535;-66
2022/06/19 11:32:25;;;;;;;8.00;1.08;;;;;;;33.72;23.95;100742.50;4913588;29;20055;-64
2022/06/19 11:35:10;;;;;;;6.82;1.20;;;;;;;33.53;24.54;100745.31;4920341;29;20055;-68
2022/06/19 11:37:57;;;;;;;1.90;0.70;;;;;;;33.68;23.76;100742.66;4919226;29;20051;-67
2022/06/19 11:40:49;;;;;;;6.28;1.33;;;;;;;33.59;24.88;100734.19;4914761;29;20415;-67
2022/06/19 11:43:35;;;;;;;2.30;0.98;;;;;;;33.39;24.22;100739.56;4914596;29;20055;-68
2022/06/19 11:46:26;;;;;;;9.55;1.20;;;;;;;33.52;23.63;100734.53;4915100;29;20055;-65
2022/06/19 11:49:29;;;;;;;2.60;0.90;;;;;;;33.62;23.47;100736.06;4914580;29;20067;-66
2022/06/19 11:52:19;;;;;;;1.70;0.90;;;;;;;33.54;24.09;100723.53;4916963;29;20435;-69
2022/06/19 11:55:21;;;;;;;3.30;1.10;;;;;;;33.52;24.18;100726.81;4915354;29;20047;-67
2022/06/19 11:58:32;;;;;;;2.65;0.90;;;;;;;33.45;23.61;100712.28;4914782;29;20071;-67
2022/06/19 12:01:21;;;;;;;2.60;1.00;;;;;;;33.64;23.81;100713.81;4914782;29;20051;-66
2022/06/19 12:04:17;;;;;;;2.28;0.90;;;;;;;33.79;24.79;100713.94;4914755;29;20432;-66
2022/06/19 12:07:04;;;;;;;2.65;1.00;;;;;;;33.96;24.27;100706.66;4914689;29;20094;-66
2022/06/19 12:09:52;;;;;;;1.23;0.95;;;;;;;33.92;24.28;100706.06;4914442;29;20051;-66
2022/06/19 12:12:37;;;;;;;2.15;1.00;;;;;;;33.86;23.53;100705.16;4945623;29;20050;-67
2022/06/19 12:15:26;;;;;;;2.05;1.00;;;;;;;33.68;24.52;100697.50;4953053;29;20070;-68
2022/06/19 12:18:17;;;;;;;2.13;1.30;;;;;;;33.61;24.92;100695.00;4952871;29;20054;-67
2022/06/19 12:21:22;;;;;;;5.53;1.20;;;;;;;33.92;23.78;100689.91;4952639;29;20519;-68
2022/06/19 12:24:14;;;;;;;1.40;0.95;;;;;;;33.97;24.40;100701.81;4953007;29;20054;-68
2022/06/19 12:27:01;;;;;;;2.40;1.10;;;;;;;33.80;25.22;100688.06;4934134;29;20051;-66
2022/06/19 12:29:52;;;;;;;1.42;1.05;;;;;;;33.68;23.77;100686.22;4934250;29;20058;-67
2022/06/19 12:32:46;;;;;;;4.18;1.10;;;;;;;33.69;24.38;100687.81;4952428;29;20054;-66
2022/06/19 12:35:33;;;;;;;;;;;;;;;33.92;24.32;100694.78;4958397;29;20529;-65
2022/06/19 12:38:20;;;;;;;4.25;1.60;;;;;;;33.94;23.78;100686.59;4952538;29;20369;-66
2022/06/19 12:41:13;;;;;;;2.97;2.30;;;;;;;33.82;24.38;100685.56;4952403;29;20062;-68
2022/06/19 12:44:12;;;;;;;2.53;1.20;;;;;;;33.84;23.56;100687.91;4955881;28;20051;-66
2022/06/19 12:47:34;;;;;;;6.88;1.30;;;;;;;33.86;22.96;100680.53;4961515;28;20042;-65
2022/06/19 12:50:48;;;;;;;6.18;1.17;;;;;;;33.84;22.74;100683.03;4961493;28;20054;-66
2022/06/19 12:53:51;;;;;;;3.70;0.90;;;;;;;33.94;22.51;100678.91;4955925;29;20058;-67
2022/06/19 12:56:51;;;;;;;9.48;1.02;;;;;;;33.94;23.13;100678.91;4955918;29;20050;-66
2022/06/19 12:59:58;;;;;;;18.80;2.13;;;;;;;33.89;22.54;100685.22;4955791;29;20054;-66
2022/06/19 13:02:52;;;;;;;3.97;1.30;;;;;;;33.96;21.72;100680.50;4955720;29;20050;-68
2022/06/19 13:05:55;;;;;;;;;;;;;;;33.91;23.90;100671.41;4961614;28;20050;-65
2022/06/19 13:09:02;;;;;;;4.47;1.40;;;;;;;33.71;24.37;100668.38;4955440;29;19915;-66
2022/06/19 13:11:49;;;;;;;3.67;1.13;;;;;;;33.81;24.11;100655.78;4938823;29;20063;-65
2022/06/19 13:14:49;;;;;;;5.03;1.13;;;;;;;33.93;24.06;100657.59;4942914;29;20047;-67
2022/06/19 13:17:50;;;;;;;2.42;0.90;;;;;;;33.98;23.52;100650.53;4936291;29;20055;-67
2022/06/19 13:21:00;;;;;;;4.57;1.13;;;;;;;34.02;23.92;100648.31;4943478;29;20058;-67
2022/06/19 13:23:58;;;;;;;5.50;1.33;;;;;;;34.16;23.72;100644.00;4955320;29;20046;-66